Time;durP1;ratioP1;P1;durP2;ratioP2;P2;SDS_P1;SDS_P2;PMS_P1;PMS_P2;Temp;Humidity;BMP_temperature;BMP_pressure;BME280_temperature;BME280_humidity;BME280_pressure;Samples;Min_cycle;Max_cycle;Signal;HPM_P1;HPM_P2
2021/07/07 04:17:21;;;;;;;5.05;3.15;;;;;;;15.24;100.00;98714.84;5066463;23;20054;-81
2021/07/07 04:19:47;;;;;;;7.53;4.40;;;;;;;15.23;100.00;98712.25;4973755;28;20030;-82
2021/07/07 04:22:12;;;;;;;10.07;4.63;;;;;;;15.26;100.00;98717.38;4973440;28;20022;-79
2021/07/07 04:24:38;;;;;;;4.88;3.88;;;;;;;15.29;100.00;98717.28;4973497;28;20026;-83
2021/07/07 04:27:04;;;;;;;6.32;4.00;;;;;;;15.34;100.00;98723.16;4972057;28;20039;-79
2021/07/07 04:32:04;;;;;;;5.78;3.15;;;;;;;15.34;100.00;98728.41;4970848;28;20094;-72
2021/07/07 04:34:29;;;;;;;3.78;3.40;;;;;;;15.36;100.00;98737.84;4972858;28;20035;-73
2021/07/07 04:36:56;;;;;;;5.78;2.97;;;;;;;15.33;100.00;98738.00;4973060;28;20472;-73
2021/07/07 04:39:21;;;;;;;8.40;3.30;;;;;;;15.56;100.00;98737.09;4973062;28;20097;-73
2021/07/07 04:41:46;;;;;;;4.88;4.38;;;;;;;15.60;100.00;98738.66;4972898;28;20480;-73
2021/07/07 04:44:12;;;;;;;6.25;3.75;;;;;;;15.65;100.00;98739.38;4972990;28;20539;-73
2021/07/07 04:46:37;;;;;;;5.90;3.30;;;;;;;15.70;100.00;98730.50;4972800;28;20420;-73
2021/07/07 04:49:02;;;;;;;8.38;3.63;;;;;;;15.79;100.00;98735.38;4972947;28;20031;-73
2021/07/07 04:51:29;;;;;;;5.07;3.58;;;;;;;15.78;100.00;98741.53;4972749;28;20031;-73
2021/07/07 04:53:54;;;;;;;4.28;3.38;;;;;;;15.89;100.00;98741.94;4972964;28;20094;-73
2021/07/07 04:56:20;;;;;;;3.28;3.08;;;;;;;15.92;100.00;98741.81;4972617;28;20369;-73
2021/07/07 04:58:45;;;;;;;3.53;2.88;;;;;;;15.97;100.00;98744.25;4972957;28;20031;-73
2021/07/07 05:01:11;;;;;;;3.75;2.92;;;;;;;16.11;100.00;98747.16;4972678;28;20026;-73
2021/07/07 05:03:36;;;;;;;2.78;2.40;;;;;;;16.17;100.00;98757.34;4973023;28;20027;-73
2021/07/07 05:06:01;;;;;;;3.78;3.35;;;;;;;16.11;100.00;98755.84;4974510;28;20065;-73
2021/07/07 05:08:27;;;;;;;4.55;3.22;;;;;;;16.02;100.00;98753.59;4976383;28;20026;-73
2021/07/07 05:10:52;;;;;;;4.30;2.80;;;;;;;15.94;100.00;98758.28;4976299;28;20023;-73
2021/07/07 05:13:18;;;;;;;5.53;2.97;;;;;;;15.97;100.00;98765.16;4976309;28;20034;-73
2021/07/07 05:15:46;;;;;;;6.05;3.40;;;;;;;16.06;100.00;98765.63;4976241;28;20027;-72
2021/07/07 05:18:12;;;;;;;3.97;2.72;;;;;;;15.98;100.00;98772.94;4976039;28;20033;-73
2021/07/07 05:20:37;;;;;;;4.80;2.90;;;;;;;16.06;100.00;98775.25;4976204;28;20026;-73
2021/07/07 05:23:07;;;;;;;6.72;3.42;;;;;;;16.03;100.00;98768.38;4976005;28;20504;-73
2021/07/07 05:25:34;;;;;;;3.60;2.90;;;;;;;15.94;100.00;98764.34;4975961;28;20038;-73
2021/07/07 05:28:01;;;;;;;5.72;2.80;;;;;;;16.10;100.00;98771.56;4974633;28;20394;-73
2021/07/07 05:30:27;;;;;;;2.70;2.50;;;;;;;15.94;100.00;98782.63;4975816;28;20042;-73
2021/07/07 05:32:53;;;;;;;3.05;2.50;;;;;;;15.83;100.00;98789.22;4976183;28;20507;-73
2021/07/07 05:35:18;;;;;;;6.43;2.50;;;;;;;15.85;100.00;98782.16;4975868;28;20058;-72
2021/07/07 05:37:46;;;;;;;2.97;2.47;;;;;;;15.88;100.00;98788.13;4975690;28;20034;-72
2021/07/07 05:40:12;;;;;;;4.95;3.00;;;;;;;15.94;100.00;98794.84;4975894;28;20026;-72
2021/07/07 05:42:37;;;;;;;5.55;2.45;;;;;;;15.98;100.00;98799.06;4976068;28;20043;-72
2021/07/07 05:45:04;;;;;;;3.83;2.20;;;;;;;15.85;100.00;98813.50;4975674;28;20484;-72
2021/07/07 05:47:29;;;;;;;5.75;2.67;;;;;;;15.78;100.00;98812.06;4975914;28;20050;-71
2021/07/07 05:49:57;;;;;;;4.10;2.72;;;;;;;15.67;100.00;98815.94;4975547;28;20500;-71
2021/07/07 05:52:24;;;;;;;3.28;2.72;;;;;;;15.65;100.00;98812.50;4975544;28;20023;-71
2021/07/07 05:54:51;;;;;;;5.90;2.47;;;;;;;15.70;100.00;98816.72;4975464;28;20525;-72
2021/07/07 05:57:17;;;;;;;3.30;2.42;;;;;;;15.71;100.00;98823.63;4975420;28;20031;-72
2021/07/07 05:59:42;;;;;;;4.93;2.35;;;;;;;15.89;100.00;98820.31;4974342;28;20101;-72
2021/07/07 06:02:07;;;;;;;3.72;3.05;;;;;;;15.87;100.00;98814.31;4975432;28;20022;-73
2021/07/07 06:04:33;;;;;;;3.67;2.80;;;;;;;15.98;100.00;98819.97;4964488;28;20034;-72
2021/07/07 06:06:58;;;;;;;7.15;3.28;;;;;;;15.90;100.00;98816.78;4955763;28;20031;-72
2021/07/07 06:09:23;;;;;;;5.72;2.83;;;;;;;15.93;100.00;98821.91;4955603;28;20024;-72
2021/07/07 06:11:50;;;;;;;8.88;3.75;;;;;;;15.87;100.00;98823.00;4955730;28;20023;-72
2021/07/07 06:14:16;;;;;;;6.63;3.90;;;;;;;15.78;100.00;98817.28;4955808;28;20503;-72
2021/07/07 06:16:42;;;;;;;7.82;3.92;;;;;;;15.73;100.00;98799.16;4954066;28;20065;-72
2021/07/07 06:19:07;;;;;;;9.15;3.97;;;;;;;15.72;100.00;98809.69;4955532;28;20106;-72
2021/07/07 06:21:32;;;;;;;4.15;3.72;;;;;;;16.00;100.00;98815.50;4957791;28;20026;-72
2021/07/07 06:23:58;;;;;;;5.95;2.95;;;;;;;16.19;100.00;98818.25;4972370;28;20353;-72
2021/07/07 06:26:28;;;;;;;5.47;3.85;;;;;;;16.42;100.00;98812.94;4954477;28;20073;-72
2021/07/07 06:28:53;;;;;;;9.50;3.47;;;;;;;16.40;100.00;98804.31;4955641;28;20085;-72
2021/07/07 06:31:18;;;;;;;4.78;2.83;;;;;;;16.24;100.00;98805.00;4971681;28;20391;-72
2021/07/07 06:33:43;;;;;;;4.15;2.38;;;;;;;16.43;100.00;98795.50;4974708;28;20486;-73
2021/07/07 06:36:09;;;;;;;101.88;60.13;;;;;;;16.53;100.00;98806.41;4935824;28;20486;-72
2021/07/07 06:38:34;;;;;;;6.10;3.15;;;;;;;16.44;100.00;98818.13;4976689;28;20498;-73
2021/07/07 06:40:59;;;;;;;4.45;2.70;;;;;;;16.86;100.00;98819.88;4974497;28;20022;-72
2021/07/07 06:43:25;;;;;;;4.20;2.55;;;;;;;16.95;99.21;98835.19;4974362;28;20030;-72
2021/07/07 06:45:50;;;;;;;7.13;2.80;;;;;;;17.02;99.22;98839.25;4969643;28;20054;-72
2021/07/07 06:48:16;;;;;;;8.30;2.80;;;;;;;16.87;100.00;98832.88;4956914;28;20030;-73
2021/07/07 06:50:42;;;;;;;4.85;2.83;;;;;;;16.91;98.75;98836.22;4954235;28;20023;-73
2021/07/07 06:53:07;;;;;;;7.25;2.60;;;;;;;16.62;98.70;98840.88;4955247;28;20031;-73
2021/07/07 06:55:33;;;;;;;6.38;2.35;;;;;;;16.49;99.44;98834.50;4954919;28;20123;-72
2021/07/07 06:57:58;;;;;;;3.85;2.08;;;;;;;16.39;100.00;98839.25;4960736;28;20022;-73
2021/07/07 07:00:24;;;;;;;7.20;2.80;;;;;;;16.41;100.00;98855.72;4973355;28;20027;-72
2021/07/07 07:02:50;;;;;;;2.05;1.63;;;;;;;16.48;97.08;98863.31;4973965;28;20031;-72
2021/07/07 07:05:17;;;;;;;2.22;1.38;;;;;;;16.41;94.47;98870.56;4973947;28;20030;-73
2021/07/07 07:07:43;;;;;;;3.28;1.65;;;;;;;16.41;94.95;98886.25;4973924;28;20019;-73
2021/07/07 07:10:10;;;;;;;1.63;1.05;;;;;;;16.47;96.02;98880.75;4973867;28;20026;-73
2021/07/07 07:12:36;;;;;;;10.68;1.70;;;;;;;16.47;97.23;98875.53;4972916;28;20053;-73
2021/07/07 07:15:05;;;;;;;5.63;2.28;;;;;;;16.53;97.91;98885.75;4973863;28;20027;-73
2021/07/07 07:17:33;;;;;;;3.47;1.50;;;;;;;16.54;98.26;98886.63;4974733;28;20034;-73
2021/07/07 07:19:59;;;;;;;2.22;1.25;;;;;;;16.60;96.73;98887.22;4981178;28;20039;-73
2021/07/07 07:22:24;;;;;;;3.03;1.40;;;;;;;16.67;95.05;98887.78;4953095;28;20023;-73
2021/07/07 07:24:51;;;;;;;2.53;1.40;;;;;;;16.69;95.30;98886.84;4953729;28;20027;-73
2021/07/07 07:27:16;;;;;;;3.20;1.30;;;;;;;16.78;93.66;98882.16;4968797;28;20035;-74
2021/07/07 07:29:44;;;;;;;6.70;1.50;;;;;;;16.55;93.21;98889.16;4953825;28;20070;-74
2021/07/07 07:32:09;;;;;;;4.10;1.30;;;;;;;16.54;95.68;98892.69;4953944;28;20019;-74
2021/07/07 07:34:36;;;;;;;3.42;1.70;;;;;;;16.61;98.73;98888.91;4953285;28;20074;-74
2021/07/07 07:37:03;;;;;;;3.90;1.67;;;;;;;16.65;99.17;98884.41;4954199;28;20035;-74
2021/07/07 07:39:39;;;;;;;1.60;1.50;;;;;;;16.70;99.00;98878.06;4954117;28;20027;-74
2021/07/07 07:42:04;;;;;;;4.80;1.75;;;;;;;16.80;94.59;98868.09;4951950;28;20078;-74
2021/07/07 07:44:30;;;;;;;6.18;1.60;;;;;;;17.01;95.28;98876.81;4951288;28;20023;-74
2021/07/07 07:46:56;;;;;;;2.70;1.60;;;;;;;17.04;93.10;98871.44;4955161;28;20046;-74
2021/07/07 07:49:22;;;;;;;2.72;1.50;;;;;;;17.16;93.75;98873.56;4965568;28;20047;-74
2021/07/07 07:51:47;;;;;;;2.28;1.30;;;;;;;17.24;93.68;98869.75;4953642;28;20082;-74
2021/07/07 07:54:13;;;;;;;4.68;1.83;;;;;;;17.40;93.92;98868.97;4952268;28;20031;-75
2021/07/07 07:56:38;;;;;;;9.45;2.10;;;;;;;17.68;93.41;98879.09;4964591;28;20110;-75
2021/07/07 07:59:03;;;;;;;3.95;1.35;;;;;;;17.77;92.58;98882.25;4964331;28;20018;-75
2021/07/07 08:01:29;;;;;;;2.13;1.60;;;;;;;17.78;90.32;98884.78;4956476;28;20019;-75
2021/07/07 08:03:54;;;;;;;2.50;1.65;;;;;;;17.88;90.90;98895.72;4951543;28;20019;-75
2021/07/07 08:06:19;;;;;;;3.22;1.75;;;;;;;17.87;91.86;98904.50;4953849;28;20031;-75
2021/07/07 08:08:45;;;;;;;7.70;2.88;;;;;;;17.55;91.91;98911.13;4952844;28;20031;-75
2021/07/07 08:11:11;;;;;;;3.33;1.85;;;;;;;17.37;93.35;98910.19;4956217;28;20070;-74
2021/07/07 08:13:38;;;;;;;4.47;1.98;;;;;;;17.19;94.81;98907.44;4972372;28;20114;-74
2021/07/07 08:16:04;;;;;;;2.95;1.90;;;;;;;17.08;95.10;98925.38;4953646;28;20030;-75
2021/07/07 08:18:29;;;;;;;3.42;2.00;;;;;;;17.02;95.89;98936.13;4953631;28;20020;-74
2021/07/07 08:20:54;;;;;;;2.22;1.60;;;;;;;16.96;96.68;98946.81;4951131;28;20023;-74
2021/07/07 08:23:20;;;;;;;9.80;1.83;;;;;;;16.88;94.65;98943.69;4966751;28;20061;-73
2021/07/07 08:25:46;;;;;;;1.95;1.58;;;;;;;16.83;96.32;98954.34;4957692;28;20022;-73
2021/07/07 08:28:11;;;;;;;5.55;1.92;;;;;;;16.77;96.22;98956.34;4964727;28;20027;-73
2021/07/07 08:30:37;;;;;;;4.93;2.03;;;;;;;16.81;96.27;98957.94;4962186;28;20027;-73
2021/07/07 08:33:02;;;;;;;3.92;2.20;;;;;;;16.81;96.06;98952.69;4957110;28;20039;-73
2021/07/07 08:35:27;;;;;;;5.45;1.90;;;;;;;16.85;96.07;98951.66;4970545;28;20044;-73
2021/07/07 08:37:53;;;;;;;6.43;2.10;;;;;;;16.82;97.12;98955.22;4953301;28;20106;-73
2021/07/07 08:40:18;;;;;;;4.93;2.25;;;;;;;16.83;96.70;98945.66;4954332;28;20042;-73
2021/07/07 08:42:45;;;;;;;5.40;2.10;;;;;;;16.73;96.10;98931.22;4955492;28;20027;-73
2021/07/07 08:45:14;;;;;;;2.88;1.55;;;;;;;16.92;92.85;98926.91;4957264;28;20039;-73
2021/07/07 08:47:42;;;;;;;7.72;2.47;;;;;;;17.00;91.25;98937.94;4957147;28;20114;-73
2021/07/07 08:50:10;;;;;;;6.88;2.22;;;;;;;16.97;91.44;98935.47;4957180;28;20437;-73
2021/07/07 08:52:39;;;;;;;4.07;2.30;;;;;;;17.09;92.15;98941.94;4957249;28;20027;-73
2021/07/07 08:55:14;;;;;;;8.30;2.58;;;;;;;17.14;93.14;98939.97;4956194;28;20038;-73
2021/07/07 08:57:43;;;;;;;4.55;2.00;;;;;;;17.38;92.43;98938.09;4956409;28;20038;-74
2021/07/07 09:00:16;;;;;;;5.05;2.25;;;;;;;17.32;90.70;98931.34;4956987;28;20034;-74
2021/07/07 09:03:06;;;;;;;3.40;1.60;;;;;;;17.57;90.18;98925.03;4957208;28;20118;-74
2021/07/07 09:05:47;;;;;;;3.22;1.60;;;;;;;17.14;91.68;98925.13;4958433;28;20027;-74
2021/07/07 09:08:12;;;;;;;5.65;2.00;;;;;;;17.29;91.24;98926.22;4976563;28;20487;-74
2021/07/07 09:10:37;;;;;;;8.15;1.95;;;;;;;17.44;90.87;98941.28;4974853;28;20078;-73
2021/07/07 09:13:14;;;;;;;3.53;1.60;;;;;;;17.83;89.21;98937.00;4976212;28;20055;-71
2021/07/07 09:15:41;;;;;;;5.10;1.85;;;;;;;18.08;88.84;98941.97;4982496;28;20022;-72
2021/07/07 09:18:07;;;;;;;6.25;1.50;;;;;;;18.39;86.49;98954.53;4955716;28;20023;-73
2021/07/07 09:20:39;;;;;;;5.25;1.50;;;;;;;18.64;87.02;98951.59;4950495;28;20502;-73
2021/07/07 09:23:18;;;;;;;2.97;1.25;;;;;;;18.89;84.14;98953.91;4956647;28;20050;-74
2021/07/07 09:25:54;;;;;;;4.05;1.85;;;;;;;19.14;84.57;98954.38;4956051;28;20030;-73
2021/07/07 09:28:22;;;;;;;2.47;1.30;;;;;;;19.35;82.33;98956.88;4955798;28;20027;-72
2021/07/07 09:30:48;;;;;;;3.70;1.20;;;;;;;19.37;79.14;98960.28;4956147;28;20035;-73
2021/07/07 09:33:13;;;;;;;3.33;1.27;;;;;;;19.46;80.91;98959.81;4956258;28;20568;-73
2021/07/07 09:35:41;;;;;;;3.22;1.50;;;;;;;20.18;75.69;98970.03;4975446;28;20054;-73
2021/07/07 09:38:07;;;;;;;4.45;1.60;;;;;;;21.08;72.34;98965.94;4974401;28;20015;-73
2021/07/07 09:40:36;;;;;;;3.03;1.27;;;;;;;20.54;75.56;98966.34;4964127;28;20074;-73
2021/07/07 09:43:03;;;;;;;3.42;1.10;;;;;;;21.13;71.29;98962.13;4956318;28;20105;-75
2021/07/07 09:45:28;;;;;;;2.95;1.20;;;;;;;20.26;73.06;98973.13;4956086;28;20505;-75
2021/07/07 09:47:54;;;;;;;2.28;1.50;;;;;;;20.33;74.71;98983.31;4956038;28;20057;-75
2021/07/07 09:50:19;;;;;;;1.90;1.08;;;;;;;20.36;76.97;98983.16;4955377;28;20118;-75
2021/07/07 09:52:45;;;;;;;3.40;1.55;;;;;;;20.40;76.09;98979.38;4954073;28;20035;-73
2021/07/07 09:55:11;;;;;;;3.22;1.20;;;;;;;20.18;76.00;98979.72;4956008;28;20039;-73
2021/07/07 09:57:44;;;;;;;4.35;2.00;;;;;;;19.35;76.11;98973.50;4956694;28;20035;-73
2021/07/07 10:00:15;;;;;;;5.88;4.22;;;;;;;20.08;73.86;98966.22;4963387;28;20023;-73
2021/07/07 10:02:42;;;;;;;3.95;1.50;;;;;;;19.79;73.74;98964.28;4974333;28;20027;-73
2021/07/07 10:05:11;;;;;;;4.28;1.88;;;;;;;19.97;72.36;98966.78;4975221;28;20030;-72
2021/07/07 10:07:36;;;;;;;4.30;1.00;;;;;;;20.03;72.92;98965.63;4974990;28;20022;-75
2021/07/07 10:10:04;;;;;;;3.15;1.27;;;;;;;20.69;71.92;98967.28;4975027;28;20273;-75
2021/07/07 10:12:30;;;;;;;5.40;1.50;;;;;;;20.94;73.56;98975.50;4975006;28;20034;-74
2021/07/07 10:14:56;;;;;;;3.10;1.25;;;;;;;20.99;70.51;98977.88;4973992;28;20038;-74
2021/07/07 10:17:22;;;;;;;3.10;1.67;;;;;;;20.93;71.73;98972.94;4974869;28;20035;-73
2021/07/07 10:19:48;;;;;;;2.53;1.30;;;;;;;20.42;72.98;98978.38;4978115;28;20024;-73
2021/07/07 10:22:15;;;;;;;3.05;1.55;;;;;;;19.95;75.70;98983.56;4955557;28;20121;-73
2021/07/07 10:24:41;;;;;;;1.73;1.20;;;;;;;20.71;73.94;98983.84;4954378;28;20517;-72
2021/07/07 10:27:08;;;;;;;1.27;1.10;;;;;;;20.78;77.65;98969.38;4954942;28;20039;-74
2021/07/07 10:29:34;;;;;;;2.78;1.50;;;;;;;20.91;71.71;98965.13;4973157;28;20483;-74
2021/07/07 10:32:02;;;;;;;2.95;1.20;;;;;;;21.25;69.14;98961.38;5003491;23;20039;-70
2021/07/07 10:34:29;;;;;;;3.40;1.20;;;;;;;21.35;70.15;98969.63;4955510;28;20057;-69
2021/07/07 10:36:56;;;;;;;4.03;1.38;;;;;;;21.37;70.63;98977.44;4953936;28;20027;-69
2021/07/07 10:39:23;;;;;;;3.97;1.40;;;;;;;21.51;71.10;98985.38;4958967;28;20031;-69
2021/07/07 10:42:02;;;;;;;6.78;0.85;;;;;;;21.67;66.54;98974.78;4965827;28;20097;-71
2021/07/07 10:44:28;;;;;;;;;;;;;;;21.75;69.22;98977.78;4965327;28;20046;-72
2021/07/07 10:46:58;;;;;;;11.10;5.18;;;;;;;21.58;66.50;98985.88;4965264;28;19918;-70
2021/07/07 10:49:25;;;;;;;3.22;1.08;;;;;;;21.17;64.76;98981.22;4964858;28;20050;-71
2021/07/07 10:51:52;;;;;;;1.25;1.02;;;;;;;20.99;67.17;98978.72;4965741;28;20019;-69
2021/07/07 10:54:20;;;;;;;2.67;1.10;;;;;;;21.10;68.24;98972.81;4965640;28;20649;-69
2021/07/07 10:56:46;;;;;;;3.85;1.25;;;;;;;21.45;67.62;98960.22;4965347;28;20031;-69
2021/07/07 10:59:33;;;;;;;3.53;0.85;;;;;;;23.04;61.15;98962.63;4963659;28;20030;-69
2021/07/07 11:02:07;;;;;;;1.98;0.95;;;;;;;22.39;65.13;98973.03;4965374;28;20037;-69
2021/07/07 11:04:36;;;;;;;2.15;0.90;;;;;;;21.86;66.59;98979.81;4961589;28;20494;-69
2021/07/07 11:07:29;;;;;;;6.40;1.10;;;;;;;21.66;69.67;98981.84;4965336;28;20554;-69
2021/07/07 11:09:57;;;;;;;2.42;1.02;;;;;;;22.24;68.73;98986.25;4964838;28;20031;-69
2021/07/07 11:12:28;;;;;;;3.28;1.00;;;;;;;23.30;64.89;98993.47;4964716;28;20105;-69
2021/07/07 11:15:07;;;;;;;2.05;1.42;;;;;;;23.60;58.09;98989.72;4964721;28;20070;-69
2021/07/07 11:17:43;;;;;;;1.25;0.90;;;;;;;22.82;60.25;98990.44;4954912;28;20538;-69
2021/07/07 11:20:12;;;;;;;1.35;0.65;;;;;;;22.25;66.19;98987.94;4945963;29;20070;-69
2021/07/07 11:22:41;;;;;;;1.30;0.90;;;;;;;21.96;63.99;98981.78;4939746;28;20031;-69
2021/07/07 11:25:09;;;;;;;5.05;1.05;;;;;;;21.78;68.78;98972.34;4944722;28;20161;-69
2021/07/07 11:27:35;;;;;;;2.83;1.00;;;;;;;21.94;66.29;98972.25;4940862;29;20057;-70
2021/07/07 11:30:03;;;;;;;2.65;0.80;;;;;;;22.05;68.58;98975.94;4943367;28;20038;-69
2021/07/07 11:32:35;;;;;;;4.30;0.95;;;;;;;21.97;66.33;98977.34;4941205;29;20401;-70
2021/07/07 11:35:07;;;;;;;2.70;1.00;;;;;;;21.73;68.09;98980.53;4945479;29;20027;-69
2021/07/07 11:37:35;;;;;;;3.55;1.25;;;;;;;21.61;66.94;98981.25;4941238;28;20031;-70
2021/07/07 11:40:08;;;;;;;2.50;0.93;;;;;;;21.59;67.36;98967.31;4945721;28;20062;-69
2021/07/07 11:42:35;;;;;;;1.60;0.90;;;;;;;21.69;68.20;98967.63;4942399;29;20400;-69
2021/07/07 11:45:03;;;;;;;4.05;1.15;;;;;;;22.16;65.37;98972.66;4944814;28;20512;-69
2021/07/07 11:47:33;;;;;;;2.42;1.02;;;;;;;21.72;68.83;98968.28;4939485;28;20031;-69
2021/07/07 11:50:16;;;;;;;16.35;11.98;;;;;;;21.85;65.01;98964.88;4945471;29;20031;-69
2021/07/07 11:52:53;;;;;;;2.65;1.30;;;;;;;21.87;64.94;98965.66;4941922;28;20043;-70
2021/07/07 11:55:44;;;;;;;2.97;1.20;;;;;;;20.72;68.74;98969.75;4944442;28;20397;-69
2021/07/07 11:58:11;;;;;;;2.25;1.05;;;;;;;21.72;69.39;98962.16;4944040;28;20162;-69
2021/07/07 12:00:40;;;;;;;1.08;0.95;;;;;;;21.99;66.61;98964.88;4939491;28;20024;-70
2021/07/07 12:03:05;;;;;;;1.63;0.70;;;;;;;22.42;68.09;98956.97;4940800;29;20031;-71
2021/07/07 12:05:31;;;;;;;3.20;0.80;;;;;;;22.51;67.40;98953.72;4944401;28;20074;-70
2021/07/07 12:08:21;;;;;;;3.47;1.02;;;;;;;23.17;63.63;98950.31;4943745;28;20618;-70
2021/07/07 12:10:47;;;;;;;3.47;0.77;;;;;;;23.30;62.43;98940.56;4943238;28;20429;-70
2021/07/07 12:13:28;;;;;;;3.22;1.00;;;;;;;22.12;65.73;98959.75;4944457;28;20035;-69
2021/07/07 12:16:15;;;;;;;2.50;0.85;;;;;;;22.33;68.34;98959.22;4942610;28;20082;-70
2021/07/07 12:18:43;;;;;;;2.63;1.10;;;;;;;22.60;64.20;98953.16;4943118;28;20741;-70
2021/07/07 12:21:08;;;;;;;2.17;1.25;;;;;;;22.78;62.31;98954.59;4941241;28;20035;-69
2021/07/07 12:23:47;;;;;;;2.28;1.10;;;;;;;22.82;61.90;98950.81;4944761;29;20038;-70
2021/07/07 12:26:16;;;;;;;;;;;;;;;23.32;63.38;98946.63;4941999;29;20037;-69
2021/07/07 12:28:42;;;;;;;0.95;0.88;;;;;;;23.41;64.92;98946.97;4942319;28;19919;-72
2021/07/07 12:31:08;;;;;;;0.88;0.70;;;;;;;22.97;64.54;98942.88;4942832;28;20043;-71
2021/07/07 12:33:34;;;;;;;2.13;0.93;;;;;;;23.80;61.94;98938.97;4945200;28;20589;-71
2021/07/07 12:35:59;;;;;;;5.45;1.17;;;;;;;23.64;64.54;98933.03;4938599;29;20496;-72
2021/07/07 12:38:25;;;;;;;1.98;0.88;;;;;;;23.79;60.65;98937.28;4944991;28;20039;-70
2021/07/07 12:40:54;;;;;;;0.85;0.68;;;;;;;23.43;63.21;98935.31;4942464;28;20027;-70
2021/07/07 12:43:27;;;;;;;2.13;0.80;;;;;;;23.97;60.09;98934.28;4944767;28;20055;-70
2021/07/07 12:46:06;;;;;;;1.95;0.80;;;;;;;23.05;60.97;98943.19;4943691;28;20031;-71
2021/07/07 12:48:51;;;;;;;0.90;0.80;;;;;;;23.22;59.84;98942.06;4945117;28;20432;-69
2021/07/07 12:51:24;;;;;;;1.23;0.80;;;;;;;23.39;61.37;98943.56;4943581;28;20035;-70
2021/07/07 12:53:50;;;;;;;0.88;0.75;;;;;;;23.24;62.14;98935.72;4944383;28;20039;-69
2021/07/07 12:56:16;;;;;;;0.77;0.63;;;;;;;22.99;60.31;98951.53;4938942;29;20082;-70
2021/07/07 12:58:41;;;;;;;1.33;0.80;;;;;;;23.64;61.71;98943.59;4941717;28;20065;-70
2021/07/07 13:01:21;;;;;;;4.15;0.88;;;;;;;23.69;60.53;98941.50;4942754;29;20032;-69
2021/07/07 13:03:46;;;;;;;0.82;0.70;;;;;;;24.60;58.44;98946.53;4943566;28;20031;-69
2021/07/07 13:06:21;;;;;;;2.30;0.85;;;;;;;24.54;59.42;98949.63;4938465;28;20373;-70
2021/07/07 13:08:47;;;;;;;0.88;0.70;;;;;;;24.67;59.76;98949.59;4944923;28;20118;-70
2021/07/07 13:11:21;;;;;;;2.22;0.90;;;;;;;24.67;57.83;98947.78;4943663;28;20037;-71
2021/07/07 13:13:47;;;;;;;1.02;0.68;;;;;;;25.09;59.17;98951.75;4942286;29;20547;-71
2021/07/07 13:16:29;;;;;;;2.85;0.85;;;;;;;23.97;60.06;98950.16;4937758;28;20043;-71
2021/07/07 13:19:04;;;;;;;2.58;0.80;;;;;;;24.02;58.43;98948.03;4943414;29;20027;-70
2021/07/07 13:21:39;;;;;;;0.98;0.73;;;;;;;24.24;57.53;98953.50;4942919;28;20031;-71
2021/07/07 13:24:21;;;;;;;0.85;0.80;;;;;;;24.49;57.36;98965.03;4944800;29;20031;-70
2021/07/07 13:26:49;;;;;;;0.70;0.60;;;;;;;24.72;56.14;98958.91;4941937;28;20192;-70
2021/07/07 13:29:19;;;;;;;2.17;0.90;;;;;;;24.00;57.15;98949.94;4944532;29;20153;-71
2021/07/07 13:31:45;;;;;;;3.72;0.70;;;;;;;24.17;59.64;98962.81;4944573;28;20031;-69
2021/07/07 13:34:10;;;;;;;0.98;0.90;;;;;;;24.25;59.08;98964.94;4944384;29;20038;-71
2021/07/07 13:36:39;;;;;;;0.88;0.68;;;;;;;24.01;61.75;98962.22;4944654;28;20656;-70
2021/07/07 13:39:09;;;;;;;2.47;0.88;;;;;;;23.72;62.13;98967.75;4947103;29;20031;-70
2021/07/07 13:41:35;;;;;;;5.88;0.82;;;;;;;22.97;61.33;98977.22;4944136;29;20473;-70
2021/07/07 13:44:01;;;;;;;0.98;0.80;;;;;;;23.13;61.47;98964.69;4943771;28;20046;-71
2021/07/07 13:46:26;;;;;;;1.02;0.77;;;;;;;24.68;60.13;98967.19;4944742;29;20027;-71
2021/07/07 13:48:52;;;;;;;0.90;0.70;;;;;;;25.53;55.10;98959.94;4945551;28;20038;-70
2021/07/07 13:51:17;;;;;;;1.13;0.63;;;;;;;25.08;55.09;98954.50;4941769;28;20125;-71
2021/07/07 13:53:42;;;;;;;1.23;0.70;;;;;;;25.38;54.81;98962.81;4947671;28;20110;-71
2021/07/07 13:56:08;;;;;;;3.83;0.93;;;;;;;25.64;55.12;98962.63;4945377;29;20042;-70
2021/07/07 13:58:33;;;;;;;6.32;0.65;;;;;;;25.21;57.54;98960.59;4944398;29;20035;-71
2021/07/07 14:00:58;;;;;;;5.07;0.60;;;;;;;25.26;54.53;98969.03;4941029;28;20032;-70
2021/07/07 14:03:24;;;;;;;2.13;1.70;;;;;;;24.97;57.20;98962.41;4946500;28;20034;-70
2021/07/07 14:05:49;;;;;;;0.98;0.80;;;;;;;24.99;54.48;98965.75;4947445;28;20031;-71
2021/07/07 14:08:14;;;;;;;1.45;0.82;;;;;;;24.91;55.34;98957.56;4947255;28;20114;-70
2021/07/07 14:10:40;;;;;;;1.02;0.60;;;;;;;24.41;55.55;98967.38;4943787;28;20118;-70
2021/07/07 14:13:05;;;;;;;0.63;0.60;;;;;;;24.93;56.48;98961.75;4945085;29;20125;-71
2021/07/07 14:15:31;;;;;;;2.50;0.40;;;;;;;24.87;52.60;98963.06;4943384;28;20082;-71
2021/07/07 14:17:56;;;;;;;0.82;0.50;;;;;;;24.79;54.69;98970.72;4946001;29;20034;-71
2021/07/07 14:20:21;;;;;;;1.88;0.60;;;;;;;26.20;55.21;98960.03;4945499;28;20523;-73
2021/07/07 14:22:47;;;;;;;0.93;0.75;;;;;;;25.24;50.45;98963.03;4947171;28;20441;-71
2021/07/07 14:25:13;;;;;;;0.73;0.55;;;;;;;24.60;53.87;98970.38;4946245;28;20035;-73
2021/07/07 14:27:38;;;;;;;1.75;0.70;;;;;;;23.82;57.62;98974.09;4947058;28;20082;-71
2021/07/07 14:30:08;;;;;;;0.60;0.60;;;;;;;23.57;60.77;98968.78;4943016;29;20058;-72
2021/07/07 14:32:34;;;;;;;1.85;0.60;;;;;;;23.19;56.58;98972.19;4944455;28;20043;-71
2021/07/07 14:34:59;;;;;;;3.92;2.92;;;;;;;23.18;57.89;98978.44;4946616;28;20488;-71
2021/07/07 14:37:24;;;;;;;6.93;5.68;;;;;;;23.58;58.35;98981.03;4945979;28;20035;-71
2021/07/07 14:39:49;;;;;;;1.10;0.57;;;;;;;23.79;57.12;98979.63;4944969;28;20031;-71
2021/07/07 14:42:15;;;;;;;4.43;0.55;;;;;;;23.99;56.28;98970.28;4943601;29;20030;-71
2021/07/07 14:44:40;;;;;;;0.52;0.40;;;;;;;23.94;54.03;98982.16;4943307;29;20544;-72
2021/07/07 14:47:05;;;;;;;1.05;0.80;;;;;;;23.87;56.30;98978.22;4944631;28;20024;-72
2021/07/07 14:49:31;;;;;;;0.80;0.80;;;;;;;24.24;55.69;98980.00;4946002;28;20038;-71
2021/07/07 14:51:56;;;;;;;1.00;0.90;;;;;;;24.93;53.17;98979.47;4945021;28;20039;-71
2021/07/07 14:54:21;;;;;;;1.38;0.90;;;;;;;24.74;51.33;98966.72;4943952;28;20034;-69
2021/07/07 14:56:47;;;;;;;1.48;0.90;;;;;;;24.69;53.47;98969.72;4943459;29;20397;-71
2021/07/07 14:59:12;;;;;;;2.60;0.70;;;;;;;24.68;56.01;98965.38;4945567;29;20070;-69
2021/07/07 15:01:38;;;;;;;2.70;0.65;;;;;;;24.48;53.10;98977.44;4944509;29;20485;-73
2021/07/07 15:04:03;;;;;;;1.85;0.63;;;;;;;24.53;54.22;98964.69;4944348;28;20069;-75
2021/07/07 15:06:28;;;;;;;1.33;0.50;;;;;;;23.98;53.63;98957.13;4943289;28;20075;-71
2021/07/07 15:08:54;;;;;;;0.73;0.60;;;;;;;23.74;53.97;98960.56;4946226;28;20031;-69
2021/07/07 15:11:19;;;;;;;1.67;0.63;;;;;;;23.92;56.27;98962.88;4942599;28;20027;-70
2021/07/07 15:13:45;;;;;;;1.77;0.60;;;;;;;24.12;53.87;98954.38;4938740;28;21338;-70
2021/07/07 15:16:11;;;;;;;0.85;0.85;;;;;;;24.20;54.82;98952.03;4944392;28;20062;-70
2021/07/07 15:18:36;;;;;;;2.05;0.50;;;;;;;23.87;56.31;98951.75;4944034;28;20035;-71
2021/07/07 15:21:02;;;;;;;0.50;0.50;;;;;;;24.17;53.62;98946.94;4938720;29;20028;-71
2021/07/07 15:23:27;;;;;;;2.17;0.60;;;;;;;23.61;56.66;98949.09;4944310;28;20037;-68
2021/07/07 15:25:53;;;;;;;0.88;0.70;;;;;;;23.53;56.11;98946.13;4944462;28;20999;-70
2021/07/07 15:28:18;;;;;;;1.38;0.82;;;;;;;23.59;57.43;98950.97;4943182;29;20028;-71
2021/07/07 15:30:44;;;;;;;2.38;1.00;;;;;;;23.50;56.75;98946.34;4940687;28;20102;-70
2021/07/07 15:33:10;;;;;;;2.38;1.70;;;;;;;23.30;58.74;98945.88;4945860;29;20042;-70
2021/07/07 15:35:35;;;;;;;1.38;0.77;;;;;;;23.17;56.77;98945.03;4945845;29;20118;-70
2021/07/07 15:38:02;;;;;;;1.25;0.73;;;;;;;22.99;59.51;98951.53;4945813;28;20129;-70
2021/07/07 15:40:28;;;;;;;0.95;0.70;;;;;;;22.68;59.75;98942.09;4939709;29;20765;-70
2021/07/07 15:42:54;;;;;;;1.02;0.68;;;;;;;22.58;60.71;98937.41;4945692;29;20110;-70
2021/07/07 15:45:19;;;;;;;3.15;0.65;;;;;;;22.30;60.90;98937.47;4941657;28;20076;-74
2021/07/07 15:47:45;;;;;;;0.95;0.50;;;;;;;22.42;60.57;98946.41;4939648;28;20059;-72
2021/07/07 15:50:11;;;;;;;1.83;0.50;;;;;;;22.34;60.56;98938.97;4944983;28;20027;-73
2021/07/07 15:52:37;;;;;;;2.80;0.93;;;;;;;22.35;61.79;98937.19;4945540;29;20059;-72